sensor_id;sensor_type;location;lat;lon;timestamp;P1;durP1;ratioP1;P2;durP2;ratioP2
61570;SDS011;47463;49.884;10.010;2023-02-28T00:00:00;7.6;;;11;;
61570;SDS011;47463;49.884;10.010;2023-02-28T00:05:00;7.7;;;11.1;;
61570;SDS011;47463;49.884;10.010;2023-02-28T00:10:00;6.7;;;10.8;;
61570;SDS011;47463;49.884;10.010;2023-02-28T00:15:00;9.4;;;11;;
61570;SDS011;47463;49.884;10.010;2023-02-28T00:20:00;9.1;;;11.4;;
61570;SDS011;47463;49.884;10.010;2023-02-28T00:25:00;9.1;;;11.4;;
61570;SDS011;47463;49.884;10.010;2023-02-28T00:30:00;8.6;;;11.5;;
61570;SDS011;47463;49.884;10.010;2023-02-28T00:35:00;8.9;;;11.7;;
61570;SDS011;47463;49.884;10.010;2023-02-28T00:40:00;8.7;;;11.4;;
61570;SDS011;47463;49.884;10.010;2023-02-28T00:45:00;8.3;;;11.4;;
61570;SDS011;47463;49.884;10.010;2023-02-28T00:50:00;11.1;;;11.7;;
61570;SDS011;47463;49.884;10.010;2023-02-28T00:55:00;11.1;;;11.7;;
61570;SDS011;47463;49.884;10.010;2023-02-28T01:00:00;9.2;;;11.8;;
61570;SDS011;47463;49.884;10.010;2023-02-28T01:05:00;8.4;;;11.7;;
61570;SDS011;47463;49.884;10.010;2023-02-28T01:10:00;8.3;;;11.4;;
61570;SDS011;47463;49.884;10.010;2023-02-28T01:15:00;8.9;;;11.6;;
61570;SDS011;47463;49.884;10.010;2023-02-28T01:20:00;10.8;;;11.8;;
61570;SDS011;47463;49.884;10.010;2023-02-28T01:25:00;10.8;;;11.8;;
61570;SDS011;47463;49.884;10.010;2023-02-28T01:30:00;9.8;;;11.3;;
61570;SDS011;47463;49.884;10.010;2023-02-28T01:35:00;8.8;;;11.9;;
61570;SDS011;47463;49.884;10.010;2023-02-28T01:40:00;11;;;11.7;;
61570;SDS011;47463;49.884;10.010;2023-02-28T01:45:01;8.2;;;11.7;;
61570;SDS011;47463;49.884;10.010;2023-02-28T01:50:00;9.1;;;11.1;;
61570;SDS011;47463;49.884;10.010;2023-02-28T01:55:00;9.1;;;11.1;;
61570;SDS011;47463;49.884;10.010;2023-02-28T02:00:00;8.5;;;11.6;;
61570;SDS011;47463;49.884;10.010;2023-02-28T02:05:00;10.4;;;11.6;;
61570;SDS011;47463;49.884;10.010;2023-02-28T02:10:00;9.5;;;11.1;;
61570;SDS011;47463;49.884;10.010;2023-02-28T02:15:00;10.2;;;11.2;;
61570;SDS011;47463;49.884;10.010;2023-02-28T02:20:06;8.2;;;11.1;;
61570;SDS011;47463;49.884;10.010;2023-02-28T02:25:10;8.2;;;11.1;;
61570;SDS011;47463;49.884;10.010;2023-02-28T02:30:04;10.2;;;11.3;;
61570;SDS011;47463;49.884;10.010;2023-02-28T02:35:01;9.8;;;12.1;;
61570;SDS011;47463;49.884;10.010;2023-02-28T02:40:02;10;;;11.5;;
61570;SDS011;47463;49.884;10.010;2023-02-28T02:45:00;9.5;;;11.6;;
61570;SDS011;47463;49.884;10.010;2023-02-28T02:50:01;8.3;;;11.5;;
61570;SDS011;47463;49.884;10.010;2023-02-28T02:55:00;8.3;;;11.5;;
61570;SDS011;47463;49.884;10.010;2023-02-28T03:00:00;9.8;;;11.8;;
61570;SDS011;47463;49.884;10.010;2023-02-28T03:05:00;9.3;;;11.4;;
61570;SDS011;47463;49.884;10.010;2023-02-28T03:10:00;9.9;;;11.9;;
61570;SDS011;47463;49.884;10.010;2023-02-28T03:15:03;10.8;;;11.4;;
61570;SDS011;47463;49.884;10.010;2023-02-28T03:20:01;10.6;;;11.6;;
61570;SDS011;47463;49.884;10.010;2023-02-28T03:25:01;10.6;;;11.6;;
61570;SDS011;47463;49.884;10.010;2023-02-28T03:30:00;8.8;;;12;;
61570;SDS011;47463;49.884;10.010;2023-02-28T03:35:01;9.7;;;11.7;;
61570;SDS011;47463;49.884;10.010;2023-02-28T03:40:00;9.4;;;11.9;;
61570;SDS011;47463;49.884;10.010;2023-02-28T03:45:00;12.1;;;12.3;;
61570;SDS011;47463;49.884;10.010;2023-02-28T03:50:01;11.8;;;12;;
61570;SDS011;47463;49.884;10.010;2023-02-28T03:55:00;11.8;;;12;;
61570;SDS011;47463;49.884;10.010;2023-02-28T04:00:00;9.6;;;12;;
61570;SDS011;47463;49.884;10.010;2023-02-28T04:05:00;8.3;;;11.8;;
61570;SDS011;47463;49.884;10.010;2023-02-28T04:10:00;8.9;;;11.3;;
61570;SDS011;47463;49.884;10.010;2023-02-28T04:15:00;9.7;;;11.5;;
61570;SDS011;47463;49.884;10.010;2023-02-28T04:20:00;11;;;11.7;;
61570;SDS011;47463;49.884;10.010;2023-02-28T04:25:00;11;;;11.7;;
61570;SDS011;47463;49.884;10.010;2023-02-28T04:30:00;10.3;;;11.5;;
61570;SDS011;47463;49.884;10.010;2023-02-28T04:35:00;11.3;;;11.6;;
61570;SDS011;47463;49.884;10.010;2023-02-28T04:40:00;12.1;;;11.9;;
61570;SDS011;47463;49.884;10.010;2023-02-28T04:45:00;8.5;;;11.3;;
61570;SDS011;47463;49.884;10.010;2023-02-28T04:50:00;9.1;;;11.2;;
61570;SDS011;47463;49.884;10.010;2023-02-28T04:55:00;9.1;;;11.2;;
61570;SDS011;47463;49.884;10.010;2023-02-28T05:00:00;8.2;;;11.1;;
61570;SDS011;47463;49.884;10.010;2023-02-28T05:05:00;8.5;;;11.2;;
61570;SDS011;47463;49.884;10.010;2023-02-28T05:10:00;9.8;;;12;;
61570;SDS011;47463;49.884;10.010;2023-02-28T05:15:00;9;;;11.2;;
61570;SDS011;47463;49.884;10.010;2023-02-28T05:20:00;7.9;;;11;;
61570;SDS011;47463;49.884;10.010;2023-02-28T05:25:00;7.9;;;11;;
61570;SDS011;47463;49.884;10.010;2023-02-28T05:30:00;7.8;;;11.2;;
61570;SDS011;47463;49.884;10.010;2023-02-28T05:35:00;7.9;;;11;;
61570;SDS011;47463;49.884;10.010;2023-02-28T05:40:00;10.1;;;11.2;;
61570;SDS011;47463;49.884;10.010;2023-02-28T05:45:00;9;;;11.4;;
61570;SDS011;47463;49.884;10.010;2023-02-28T05:50:00;9.3;;;11;;
61570;SDS011;47463;49.884;10.010;2023-02-28T05:55:00;9.3;;;11;;
61570;SDS011;47463;49.884;10.010;2023-02-28T06:00:00;11;;;11.3;;
61570;SDS011;47463;49.884;10.010;2023-02-28T06:05:00;10.8;;;10.7;;
61570;SDS011;47463;49.884;10.010;2023-02-28T06:10:00;7.2;;;10.9;;
61570;SDS011;47463;49.884;10.010;2023-02-28T06:15:00;8.2;;;10.5;;
61570;SDS011;47463;49.884;10.010;2023-02-28T06:20:00;7.1;;;10.4;;
61570;SDS011;47463;49.884;10.010;2023-02-28T06:25:00;7.1;;;10.4;;
61570;SDS011;47463;49.884;10.010;2023-02-28T06:30:00;9.2;;;10.7;;
61570;SDS011;47463;49.884;10.010;2023-02-28T06:35:00;7.2;;;10.3;;
61570;SDS011;47463;49.884;10.010;2023-02-28T06:40:00;7.2;;;10.3;;
61570;SDS011;47463;49.884;10.010;2023-02-28T06:45:00;8.1;;;10.5;;
61570;SDS011;47463;49.884;10.010;2023-02-28T06:50:00;7.2;;;10.4;;
61570;SDS011;47463;49.884;10.010;2023-02-28T06:55:00;7.2;;;10.4;;
61570;SDS011;47463;49.884;10.010;2023-02-28T07:00:00;7.8;;;10.3;;
61570;SDS011;47463;49.884;10.010;2023-02-28T07:05:00;7.6;;;10.1;;
61570;SDS011;47463;49.884;10.010;2023-02-28T07:10:00;8.3;;;10.4;;
61570;SDS011;47463;49.884;10.010;2023-02-28T07:15:00;6.8;;;10.2;;
61570;SDS011;47463;49.884;10.010;2023-02-28T07:20:00;6.9;;;10.3;;
61570;SDS011;47463;49.884;10.010;2023-02-28T07:25:00;6.9;;;10.3;;
61570;SDS011;47463;49.884;10.010;2023-02-28T07:30:00;10.4;;;10.5;;
61570;SDS011;47463;49.884;10.010;2023-02-28T07:35:00;8.1;;;10.5;;
61570;SDS011;47463;49.884;10.010;2023-02-28T07:40:00;6;;;10.3;;
61570;SDS011;47463;49.884;10.010;2023-02-28T07:45:00;7.9;;;11.1;;
61570;SDS011;47463;49.884;10.010;2023-02-28T07:50:00;8.9;;;11.2;;
61570;SDS011;47463;49.884;10.010;2023-02-28T07:55:00;8.9;;;11.2;;
61570;SDS011;47463;49.884;10.010;2023-02-28T08:00:00;7.2;;;10.8;;
61570;SDS011;47463;49.884;10.010;2023-02-28T08:05:00;9.5;;;11.7;;
61570;SDS011;47463;49.884;10.010;2023-02-28T08:10:00;9.1;;;11.3;;
61570;SDS011;47463;49.884;10.010;2023-02-28T08:15:00;10.1;;;11.6;;
61570;SDS011;47463;49.884;10.010;2023-02-28T08:20:00;10;;;11.6;;
61570;SDS011;47463;49.884;10.010;2023-02-28T08:25:00;10;;;11.6;;
61570;SDS011;47463;49.884;10.010;2023-02-28T08:30:00;9.6;;;12.4;;
61570;SDS011;47463;49.884;10.010;2023-02-28T08:35:00;8.4;;;11.7;;
61570;SDS011;47463;49.884;10.010;2023-02-28T08:40:00;7.8;;;11.6;;
61570;SDS011;47463;49.884;10.010;2023-02-28T08:45:00;9.7;;;12.5;;
61570;SDS011;47463;49.884;10.010;2023-02-28T08:50:00;10;;;12.7;;
61570;SDS011;47463;49.884;10.010;2023-02-28T08:55:00;10;;;12.7;;
61570;SDS011;47463;49.884;10.010;2023-02-28T09:00:00;10.1;;;12.8;;
61570;SDS011;47463;49.884;10.010;2023-02-28T09:05:00;10;;;12.6;;
61570;SDS011;47463;49.884;10.010;2023-02-28T09:10:00;10.2;;;13;;
61570;SDS011;47463;49.884;10.010;2023-02-28T09:15:00;10.3;;;12.5;;
61570;SDS011;47463;49.884;10.010;2023-02-28T09:20:00;11.4;;;12.8;;
61570;SDS011;47463;49.884;10.010;2023-02-28T09:25:00;11.4;;;12.8;;
61570;SDS011;47463;49.884;10.010;2023-02-28T09:30:00;9.9;;;12.6;;
61570;SDS011;47463;49.884;10.010;2023-02-28T09:35:00;10.2;;;12.8;;
61570;SDS011;47463;49.884;10.010;2023-02-28T09:40:00;10;;;12.8;;
61570;SDS011;47463;49.884;10.010;2023-02-28T09:45:00;9;;;11.8;;
61570;SDS011;47463;49.884;10.010;2023-02-28T09:50:03;9.6;;;11.3;;
61570;SDS011;47463;49.884;10.010;2023-02-28T09:55:00;9.6;;;11.3;;
61570;SDS011;47463;49.884;10.010;2023-02-28T10:00:03;11.5;;;12;;
61570;SDS011;47463;49.884;10.010;2023-02-28T10:05:00;10.5;;;12.4;;
61570;SDS011;47463;49.884;10.010;2023-02-28T10:10:00;9.4;;;11.8;;
61570;SDS011;47463;49.884;10.010;2023-02-28T10:15:00;11.8;;;12.4;;
61570;SDS011;47463;49.884;10.010;2023-02-28T10:20:00;11.3;;;12.7;;
61570;SDS011;47463;49.884;10.010;2023-02-28T10:25:00;11.3;;;12.7;;
61570;SDS011;47463;49.884;10.010;2023-02-28T10:30:00;9.5;;;12;;
61570;SDS011;47463;49.884;10.010;2023-02-28T10:35:01;11.4;;;12.4;;
61570;SDS011;47463;49.884;10.010;2023-02-28T10:40:00;10.9;;;12.3;;
61570;SDS011;47463;49.884;10.010;2023-02-28T10:45:10;9.1;;;11.7;;
61570;SDS011;47463;49.884;10.010;2023-02-28T10:50:00;8.9;;;11.2;;
61570;SDS011;47463;49.884;10.010;2023-02-28T10:55:13;8.9;;;11.2;;
61570;SDS011;47463;49.884;10.010;2023-02-28T11:00:05;12.8;;;12.4;;
61570;SDS011;47463;49.884;10.010;2023-02-28T11:05:00;10.9;;;12.6;;
61570;SDS011;47463;49.884;10.010;2023-02-28T11:10:00;12.5;;;12.5;;
61570;SDS011;47463;49.884;10.010;2023-02-28T11:15:00;11.4;;;12.5;;
61570;SDS011;47463;49.884;10.010;2023-02-28T11:20:00;11.5;;;12.7;;
61570;SDS011;47463;49.884;10.010;2023-02-28T11:25:00;11.5;;;12.7;;
61570;SDS011;47463;49.884;10.010;2023-02-28T11:30:00;13.5;;;12.4;;
61570;SDS011;47463;49.884;10.010;2023-02-28T11:35:00;12.6;;;12.7;;
61570;SDS011;47463;49.884;10.010;2023-02-28T11:40:00;13.5;;;13;;
61570;SDS011;47463;49.884;10.010;2023-02-28T11:45:03;12.1;;;12.6;;
61570;SDS011;47463;49.884;10.010;2023-02-28T11:50:04;13.7;;;13.2;;
61570;SDS011;47463;49.884;10.010;2023-02-28T11:55:02;13.7;;;13.2;;
61570;SDS011;47463;49.884;10.010;2023-02-28T12:00:01;10.5;;;12.7;;
61570;SDS011;47463;49.884;10.010;2023-02-28T12:05:04;12.4;;;13.2;;
61570;SDS011;47463;49.884;10.010;2023-02-28T12:10:01;12.2;;;12.2;;
61570;SDS011;47463;49.884;10.010;2023-02-28T12:15:04;13.9;;;12.7;;
61570;SDS011;47463;49.884;10.010;2023-02-28T12:20:02;12;;;12.9;;
61570;SDS011;47463;49.884;10.010;2023-02-28T12:26:07;12;;;12.9;;
61570;SDS011;47463;49.884;10.010;2023-02-28T12:30:00;10.6;;;11.8;;
61570;SDS011;47463;49.884;10.010;2023-02-28T12:35:01;11.2;;;12.3;;
61570;SDS011;47463;49.884;10.010;2023-02-28T12:40:00;10.9;;;12.5;;
61570;SDS011;47463;49.884;10.010;2023-02-28T12:45:01;11.6;;;12.2;;
61570;SDS011;47463;49.884;10.010;2023-02-28T12:50:02;12;;;12.7;;
61570;SDS011;47463;49.884;10.010;2023-02-28T12:55:00;12;;;12.7;;
61570;SDS011;47463;49.884;10.010;2023-02-28T13:00:00;10.9;;;13.1;;
61570;SDS011;47463;49.884;10.010;2023-02-28T13:05:02;10.7;;;12.6;;
61570;SDS011;47463;49.884;10.010;2023-02-28T13:10:00;12.4;;;13.2;;
61570;SDS011;47463;49.884;10.010;2023-02-28T13:15:02;12.2;;;12.8;;
61570;SDS011;47463;49.884;10.010;2023-02-28T13:20:00;11.6;;;13.4;;
61570;SDS011;47463;49.884;10.010;2023-02-28T13:25:00;11.6;;;13.4;;
61570;SDS011;47463;49.884;10.010;2023-02-28T13:30:00;10;;;12.1;;
61570;SDS011;47463;49.884;10.010;2023-02-28T13:35:34;13.8;;;13.9;;
61570;SDS011;47463;49.884;10.010;2023-02-28T13:40:13;13.9;;;13.3;;
61570;SDS011;47463;49.884;10.010;2023-02-28T13:45:31;10.9;;;12.8;;
61570;SDS011;47463;49.884;10.010;2023-02-28T13:50:20;12.9;;;13.7;;
61570;SDS011;47463;49.884;10.010;2023-02-28T13:55:03;12.9;;;13.7;;
61570;SDS011;47463;49.884;10.010;2023-02-28T14:00:02;12.9;;;13.3;;
61570;SDS011;47463;49.884;10.010;2023-02-28T14:05:00;12.7;;;13.4;;
61570;SDS011;47463;49.884;10.010;2023-02-28T14:10:01;13.7;;;12.7;;
61570;SDS011;47463;49.884;10.010;2023-02-28T14:15:00;11.1;;;12.9;;
61570;SDS011;47463;49.884;10.010;2023-02-28T14:20:00;11.7;;;13.3;;
61570;SDS011;47463;49.884;10.010;2023-02-28T14:25:05;11.7;;;13.3;;
61570;SDS011;47463;49.884;10.010;2023-02-28T14:30:04;11.8;;;13.5;;
61570;SDS011;47463;49.884;10.010;2023-02-28T14:35:03;12.3;;;13;;
61570;SDS011;47463;49.884;10.010;2023-02-28T14:40:00;12.1;;;12.9;;
61570;SDS011;47463;49.884;10.010;2023-02-28T14:45:00;11.8;;;12.6;;
61570;SDS011;47463;49.884;10.010;2023-02-28T14:50:00;13.1;;;13.5;;
61570;SDS011;47463;49.884;10.010;2023-02-28T14:55:00;13.1;;;13.5;;
61570;SDS011;47463;49.884;10.010;2023-02-28T15:00:00;12.4;;;13;;
61570;SDS011;47463;49.884;10.010;2023-02-28T15:05:00;11.8;;;13.1;;
61570;SDS011;47463;49.884;10.010;2023-02-28T15:10:08;14.4;;;13.2;;
61570;SDS011;47463;49.884;10.010;2023-02-28T15:15:00;12.5;;;12.9;;
61570;SDS011;47463;49.884;10.010;2023-02-28T15:20:00;12.2;;;12.8;;
61570;SDS011;47463;49.884;10.010;2023-02-28T15:25:00;12.2;;;12.8;;
61570;SDS011;47463;49.884;10.010;2023-02-28T15:30:00;12;;;12.8;;
61570;SDS011;47463;49.884;10.010;2023-02-28T15:35:17;10.5;;;13;;
61570;SDS011;47463;49.884;10.010;2023-02-28T15:40:04;12.2;;;13.2;;
61570;SDS011;47463;49.884;10.010;2023-02-28T15:45:00;11.2;;;13.2;;
61570;SDS011;47463;49.884;10.010;2023-02-28T15:50:00;14.5;;;13.4;;
61570;SDS011;47463;49.884;10.010;2023-02-28T15:55:06;14.5;;;13.4;;
61570;SDS011;47463;49.884;10.010;2023-02-28T16:00:00;12.6;;;13.3;;
61570;SDS011;47463;49.884;10.010;2023-02-28T16:05:12;12.6;;;13.3;;
61570;SDS011;47463;49.884;10.010;2023-02-28T16:10:00;14.1;;;13.8;;
61570;SDS011;47463;49.884;10.010;2023-02-28T16:15:00;12.5;;;13.6;;
61570;SDS011;47463;49.884;10.010;2023-02-28T16:20:00;12.8;;;13.1;;
61570;SDS011;47463;49.884;10.010;2023-02-28T16:25:00;12.8;;;13.1;;
61570;SDS011;47463;49.884;10.010;2023-02-28T16:30:00;12.6;;;13.1;;
61570;SDS011;47463;49.884;10.010;2023-02-28T16:35:00;12.2;;;12.9;;
61570;SDS011;47463;49.884;10.010;2023-02-28T16:45:00;12.2;;;12.9;;
61570;SDS011;47463;49.884;10.010;2023-02-28T16:50:00;12.5;;;13.3;;
61570;SDS011;47463;49.884;10.010;2023-02-28T16:55:00;12.5;;;13.3;;
61570;SDS011;47463;49.884;10.010;2023-02-28T17:00:00;13.4;;;13.2;;
61570;SDS011;47463;49.884;10.010;2023-02-28T17:05:00;14.9;;;13.5;;
61570;SDS011;47463;49.884;10.010;2023-02-28T17:10:00;11;;;12.8;;
61570;SDS011;47463;49.884;10.010;2023-02-28T17:15:00;12.6;;;12.8;;
61570;SDS011;47463;49.884;10.010;2023-02-28T17:20:00;12.7;;;13.4;;
61570;SDS011;47463;49.884;10.010;2023-02-28T17:25:00;12.7;;;13.4;;
61570;SDS011;47463;49.884;10.010;2023-02-28T17:30:00;13.2;;;13;;
61570;SDS011;47463;49.884;10.010;2023-02-28T17:35:00;13.1;;;14;;
61570;SDS011;47463;49.884;10.010;2023-02-28T17:40:00;14.3;;;13.7;;
61570;SDS011;47463;49.884;10.010;2023-02-28T17:45:00;14.9;;;14;;
61570;SDS011;47463;49.884;10.010;2023-02-28T17:50:00;15.8;;;14.2;;
61570;SDS011;47463;49.884;10.010;2023-02-28T17:55:00;15.8;;;14.2;;
61570;SDS011;47463;49.884;10.010;2023-02-28T18:00:00;14.4;;;14.3;;
61570;SDS011;47463;49.884;10.010;2023-02-28T18:05:00;12.6;;;13.8;;
61570;SDS011;47463;49.884;10.010;2023-02-28T18:10:00;14.9;;;13.5;;
61570;SDS011;47463;49.884;10.010;2023-02-28T18:15:00;13.7;;;13.5;;
61570;SDS011;47463;49.884;10.010;2023-02-28T18:20:00;16;;;15.1;;
61570;SDS011;47463;49.884;10.010;2023-02-28T18:25:00;16;;;15.1;;
61570;SDS011;47463;49.884;10.010;2023-02-28T18:30:00;16;;;14.9;;
61570;SDS011;47463;49.884;10.010;2023-02-28T18:35:00;12.9;;;13.6;;
61570;SDS011;47463;49.884;10.010;2023-02-28T18:40:00;14.4;;;14.1;;
61570;SDS011;47463;49.884;10.010;2023-02-28T18:45:00;16.8;;;14.2;;
61570;SDS011;47463;49.884;10.010;2023-02-28T18:50:00;14.5;;;14.2;;
61570;SDS011;47463;49.884;10.010;2023-02-28T18:55:00;14.5;;;14.2;;
61570;SDS011;47463;49.884;10.010;2023-02-28T19:00:00;15.5;;;14.4;;
61570;SDS011;47463;49.884;10.010;2023-02-28T19:05:00;14.3;;;13.8;;
61570;SDS011;47463;49.884;10.010;2023-02-28T19:10:00;16.2;;;14.7;;
61570;SDS011;47463;49.884;10.010;2023-02-28T19:15:00;15.6;;;14.7;;
61570;SDS011;47463;49.884;10.010;2023-02-28T19:20:00;16.2;;;13.9;;
61570;SDS011;47463;49.884;10.010;2023-02-28T19:25:00;16.2;;;13.9;;
61570;SDS011;47463;49.884;10.010;2023-02-28T19:30:00;15.5;;;14;;
61570;SDS011;47463;49.884;10.010;2023-02-28T19:35:00;15.6;;;13.7;;
61570;SDS011;47463;49.884;10.010;2023-02-28T19:40:00;16.4;;;14.4;;
61570;SDS011;47463;49.884;10.010;2023-02-28T19:45:00;17.4;;;14.4;;
61570;SDS011;47463;49.884;10.010;2023-02-28T19:50:00;18.3;;;15.2;;
61570;SDS011;47463;49.884;10.010;2023-02-28T19:55:00;18.3;;;15.2;;
61570;SDS011;47463;49.884;10.010;2023-02-28T20:00:00;16.6;;;14.8;;
61570;SDS011;47463;49.884;10.010;2023-02-28T20:05:00;17.1;;;14.8;;
61570;SDS011;47463;49.884;10.010;2023-02-28T20:10:00;17;;;15.2;;
61570;SDS011;47463;49.884;10.010;2023-02-28T20:15:00;19.4;;;15.4;;
61570;SDS011;47463;49.884;10.010;2023-02-28T20:20:00;17.7;;;15.5;;
61570;SDS011;47463;49.884;10.010;2023-02-28T20:25:00;17.7;;;15.5;;
61570;SDS011;47463;49.884;10.010;2023-02-28T20:30:00;18.1;;;15.3;;
61570;SDS011;47463;49.884;10.010;2023-02-28T20:35:00;18.3;;;15.3;;
61570;SDS011;47463;49.884;10.010;2023-02-28T20:40:00;19.2;;;15.7;;
61570;SDS011;47463;49.884;10.010;2023-02-28T20:45:00;20.8;;;15.9;;
61570;SDS011;47463;49.884;10.010;2023-02-28T20:50:00;20.4;;;16.2;;
61570;SDS011;47463;49.884;10.010;2023-02-28T20:55:00;20.4;;;16.2;;
61570;SDS011;47463;49.884;10.010;2023-02-28T21:00:00;20.4;;;16.4;;
61570;SDS011;47463;49.884;10.010;2023-02-28T21:05:00;21.9;;;16.4;;
61570;SDS011;47463;49.884;10.010;2023-02-28T21:10:00;21.3;;;16.7;;
61570;SDS011;47463;49.884;10.010;2023-02-28T21:15:00;19.9;;;16;;
61570;SDS011;47463;49.884;10.010;2023-02-28T21:20:00;23;;;17.5;;
61570;SDS011;47463;49.884;10.010;2023-02-28T21:25:00;23;;;17.5;;
61570;SDS011;47463;49.884;10.010;2023-02-28T21:30:00;21.6;;;16.4;;
61570;SDS011;47463;49.884;10.010;2023-02-28T21:35:00;23.5;;;17.3;;
61570;SDS011;47463;49.884;10.010;2023-02-28T21:40:00;23.9;;;17;;
61570;SDS011;47463;49.884;10.010;2023-02-28T21:45:00;22.7;;;16.9;;
61570;SDS011;47463;49.884;10.010;2023-02-28T21:50:00;23.4;;;17.2;;
61570;SDS011;47463;49.884;10.010;2023-02-28T21:55:00;23.4;;;17.2;;
61570;SDS011;47463;49.884;10.010;2023-02-28T22:00:00;22.1;;;16.5;;
61570;SDS011;47463;49.884;10.010;2023-02-28T22:05:00;22.4;;;16.9;;
61570;SDS011;47463;49.884;10.010;2023-02-28T22:10:00;24.1;;;17.1;;
61570;SDS011;47463;49.884;10.010;2023-02-28T22:15:00;21.3;;;16.5;;
61570;SDS011;47463;49.884;10.010;2023-02-28T22:20:00;24.5;;;17.2;;
61570;SDS011;47463;49.884;10.010;2023-02-28T22:25:00;24.5;;;17.2;;
61570;SDS011;47463;49.884;10.010;2023-02-28T22:30:00;23.3;;;17.6;;
61570;SDS011;47463;49.884;10.010;2023-02-28T22:35:00;25;;;17.9;;
61570;SDS011;47463;49.884;10.010;2023-02-28T22:40:00;23.4;;;17.5;;
61570;SDS011;47463;49.884;10.010;2023-02-28T22:45:00;24.6;;;17.6;;
61570;SDS011;47463;49.884;10.010;2023-02-28T22:50:00;24.5;;;16.9;;
61570;SDS011;47463;49.884;10.010;2023-02-28T22:55:00;24.5;;;16.9;;
61570;SDS011;47463;49.884;10.010;2023-02-28T23:00:00;24.9;;;18.1;;
61570;SDS011;47463;49.884;10.010;2023-02-28T23:05:00;27.6;;;17.9;;
61570;SDS011;47463;49.884;10.010;2023-02-28T23:10:00;24.9;;;17.8;;
61570;SDS011;47463;49.884;10.010;2023-02-28T23:15:00;26.4;;;18.3;;
61570;SDS011;47463;49.884;10.010;2023-02-28T23:20:00;25.3;;;18.2;;
61570;SDS011;47463;49.884;10.010;2023-02-28T23:25:00;25.3;;;18.2;;
61570;SDS011;47463;49.884;10.010;2023-02-28T23:30:00;25.4;;;17.9;;
61570;SDS011;47463;49.884;10.010;2023-02-28T23:35:00;28.4;;;17.8;;
61570;SDS011;47463;49.884;10.010;2023-02-28T23:40:00;26.1;;;16.9;;
61570;SDS011;47463;49.884;10.010;2023-02-28T23:45:00;27.3;;;18.4;;
61570;SDS011;47463;49.884;10.010;2023-02-28T23:50:00;26.3;;;17.4;;
61570;SDS011;47463;49.884;10.010;2023-02-28T23:55:00;26.3;;;17.4;;
